createdAt,value
2023-06-04T00:00:20.221Z,94967.00
2023-06-04T00:01:20.185Z,94968.00
2023-06-04T00:02:20.200Z,94969.00
2023-06-04T00:03:20.347Z,94968.00
2023-06-04T00:04:20.246Z,94968.00
2023-06-04T00:05:20.142Z,94965.00
2023-06-04T00:06:20.160Z,94967.00
2023-06-04T00:07:20.145Z,94966.00
2023-06-04T00:08:20.160Z,94964.00
2023-06-04T00:09:20.173Z,94964.00
2023-06-04T00:10:20.156Z,94963.00
2023-06-04T00:11:20.147Z,94962.00
2023-06-04T00:12:20.109Z,94960.00
2023-06-04T00:13:20.147Z,94960.00
2023-06-04T00:14:20.094Z,94962.00
2023-06-04T00:15:20.112Z,94961.00
2023-06-04T00:16:20.094Z,94959.00
2023-06-04T00:17:20.071Z,94959.00
2023-06-04T00:18:20.093Z,94957.00
2023-06-04T00:19:20.083Z,94955.00
2023-06-04T00:20:20.054Z,94954.00
2023-06-04T00:21:20.040Z,94956.00
2023-06-04T00:22:20.026Z,94954.00
2023-06-04T00:23:20.031Z,94954.00
2023-06-04T00:24:20.050Z,94949.00
2023-06-04T00:25:20.041Z,94947.00
2023-06-04T00:26:20.035Z,94946.00
2023-06-04T00:27:20.001Z,94945.00
2023-06-04T00:28:20.008Z,94945.00
2023-06-04T00:29:19.974Z,94945.00
2023-06-04T00:30:20.014Z,94944.00
2023-06-04T00:31:19.992Z,94948.00
2023-06-04T00:32:19.954Z,94946.00
2023-06-04T00:33:20.040Z,94946.00
2023-06-04T00:34:20.028Z,94947.00
2023-06-04T00:35:20.093Z,94948.00
2023-06-04T00:36:20.121Z,94947.00
2023-06-04T00:37:20.108Z,94948.00
2023-06-04T00:38:20.184Z,94947.00
2023-06-04T00:39:20.215Z,94946.00
2023-06-04T00:40:20.245Z,94947.00
2023-06-04T00:41:20.260Z,94948.00
2023-06-04T00:42:20.325Z,94951.00
2023-06-04T00:43:20.339Z,94951.00
2023-06-04T00:44:20.299Z,94950.00
2023-06-04T00:45:20.358Z,94950.00
2023-06-04T00:46:20.480Z,94949.00
2023-06-04T00:47:20.403Z,94949.00
2023-06-04T00:48:20.381Z,94952.00
2023-06-04T00:49:20.423Z,94950.00
2023-06-04T00:50:20.497Z,94950.00
2023-06-04T00:51:20.468Z,94951.00
2023-06-04T00:52:20.564Z,94951.00
2023-06-04T00:53:20.549Z,94947.00
2023-06-04T00:54:20.629Z,94946.00
2023-06-04T00:55:20.643Z,94946.00
2023-06-04T00:56:20.689Z,94950.00
2023-06-04T00:57:20.713Z,94950.00
2023-06-04T00:58:20.724Z,94954.00
2023-06-04T00:59:20.716Z,94954.00
2023-06-04T01:00:20.758Z,94955.00
2023-06-04T01:01:20.805Z,94957.00
2023-06-04T01:02:20.832Z,94955.00
2023-06-04T01:03:20.836Z,94954.00
2023-06-04T01:04:20.841Z,94955.00
2023-06-04T01:05:20.877Z,94955.00
2023-06-04T01:06:20.868Z,94954.00
2023-06-04T01:07:22.018Z,94951.00
2023-06-04T01:08:20.963Z,94953.00
2023-06-04T01:09:20.987Z,94953.00
2023-06-04T01:10:20.985Z,94952.00
2023-06-04T01:11:21.041Z,94952.00
2023-06-04T01:12:21.043Z,94953.00
2023-06-04T01:13:21.049Z,94952.00
2023-06-04T01:14:21.095Z,94953.00
2023-06-04T01:15:21.064Z,94949.00
2023-06-04T01:16:21.096Z,94949.00
2023-06-04T01:17:21.236Z,94946.00
2023-06-04T01:18:21.130Z,94944.00
2023-06-04T01:19:21.149Z,94943.00
2023-06-04T01:20:21.174Z,94940.00
2023-06-04T01:21:21.193Z,94942.00
2023-06-04T01:22:21.217Z,94938.00
2023-06-04T01:23:21.254Z,94938.00
2023-06-04T01:24:21.264Z,94941.00
2023-06-04T01:25:21.256Z,94941.00
2023-06-04T01:26:21.339Z,94942.00
2023-06-04T01:27:21.367Z,94942.00
2023-06-04T01:28:21.357Z,94942.00
2023-06-04T01:29:21.398Z,94945.00
2023-06-04T01:30:21.349Z,94945.00
2023-06-04T01:31:21.515Z,94946.00
2023-06-04T01:32:21.409Z,94940.00
2023-06-04T01:33:21.453Z,94943.00
2023-06-04T01:34:21.581Z,94941.00
2023-06-04T01:35:21.545Z,94944.00
2023-06-04T01:36:21.600Z,94944.00
2023-06-04T01:37:21.594Z,94947.00
2023-06-04T01:38:21.675Z,94945.00
2023-06-04T01:39:21.679Z,94945.00
2023-06-04T01:40:21.697Z,94946.00
2023-06-04T01:41:21.754Z,94946.00
2023-06-04T01:42:21.729Z,94949.00
2023-06-04T01:43:21.790Z,94950.00
2023-06-04T01:44:23.827Z,94947.00
2023-06-04T01:45:21.855Z,94947.00
2023-06-04T01:46:21.912Z,94952.00
2023-06-04T01:47:21.922Z,94953.00
2023-06-04T01:48:21.968Z,94956.00
2023-06-04T01:49:21.999Z,94954.00
2023-06-04T01:50:22.030Z,94954.00
2023-06-04T01:51:22.061Z,94956.00
2023-06-04T01:52:22.098Z,94955.00
2023-06-04T01:53:22.109Z,94955.00
2023-06-04T01:54:22.184Z,94954.00
2023-06-04T01:55:22.223Z,94957.00
2023-06-04T01:56:22.326Z,94958.00
2023-06-04T01:57:22.240Z,94958.00
2023-06-04T01:58:22.776Z,94959.00
2023-06-04T01:59:22.385Z,94961.00
2023-06-04T02:00:22.370Z,94961.00
2023-06-04T02:01:22.382Z,94962.00
2023-06-04T02:02:22.436Z,94963.00
2023-06-04T02:03:22.461Z,94964.00
2023-06-04T02:04:22.446Z,94967.00
2023-06-04T02:05:22.476Z,94967.00
2023-06-04T02:06:22.529Z,94969.00
2023-06-04T02:07:22.580Z,94970.00
2023-06-04T02:08:22.575Z,94973.00
2023-06-04T02:09:22.688Z,94972.00
2023-06-04T02:10:22.603Z,94972.00
2023-06-04T02:11:22.622Z,94970.00
2023-06-04T02:12:22.620Z,94971.00
2023-06-04T02:13:22.734Z,94977.00
2023-06-04T02:14:22.764Z,94976.00
2023-06-04T02:15:22.785Z,94978.00
2023-06-04T02:16:22.859Z,94977.00
2023-06-04T02:17:22.849Z,94978.00
2023-06-04T02:18:22.868Z,94978.00
2023-06-04T02:19:22.915Z,94977.00
2023-06-04T02:20:22.905Z,94977.00
2023-06-04T02:21:22.968Z,94976.00
2023-06-04T02:22:23.032Z,94979.00
2023-06-04T02:23:23.057Z,94977.00
2023-06-04T02:24:23.121Z,94978.00
2023-06-04T02:25:23.111Z,94980.00
2023-06-04T02:26:23.186Z,94980.00
2023-06-04T02:27:24.044Z,94980.00
2023-06-04T02:28:23.239Z,94979.00
2023-06-04T02:29:23.296Z,94977.00
2023-06-04T02:30:23.279Z,94979.00
2023-06-04T02:31:23.319Z,94979.00
2023-06-04T02:32:23.495Z,94980.00
2023-06-04T02:33:23.342Z,94980.00
2023-06-04T02:34:23.392Z,94977.00
2023-06-04T02:35:23.409Z,94977.00
2023-06-04T02:36:23.449Z,94976.00
2023-06-04T02:37:23.485Z,94979.00
2023-06-04T02:38:23.520Z,94977.00
2023-06-04T02:39:23.481Z,94977.00
2023-06-04T02:40:23.509Z,94983.00
2023-06-04T02:41:23.576Z,94981.00
2023-06-04T02:42:23.528Z,94983.00
2023-06-04T02:43:23.576Z,94982.00
2023-06-04T02:44:24.196Z,94984.00
2023-06-04T02:45:23.615Z,94982.00
2023-06-04T02:46:23.675Z,94983.00
2023-06-04T02:47:23.701Z,94982.00
2023-06-04T02:48:23.698Z,94983.00
2023-06-04T02:49:23.705Z,94983.00
2023-06-04T02:50:23.813Z,94985.00
2023-06-04T02:51:23.828Z,94986.00
2023-06-04T02:52:23.822Z,94987.00
2023-06-04T02:53:23.847Z,94991.00
2023-06-04T02:54:23.911Z,94990.00
2023-06-04T02:55:23.928Z,94990.00
2023-06-04T02:56:23.950Z,94984.00
2023-06-04T02:57:23.985Z,94982.00
2023-06-04T02:58:24.032Z,94984.00
2023-06-04T02:59:24.050Z,94986.00
2023-06-04T03:00:24.056Z,94986.00
2023-06-04T03:01:24.126Z,94986.00
2023-06-04T03:02:24.094Z,94989.00
2023-06-04T03:03:24.164Z,94983.00
2023-06-04T03:04:24.208Z,94984.00
2023-06-04T03:05:24.275Z,94982.00
2023-06-04T03:06:24.293Z,94983.00
2023-06-04T03:07:24.342Z,94985.00
2023-06-04T03:08:24.417Z,94989.00
2023-06-04T03:09:24.383Z,94990.00
2023-06-04T03:10:24.415Z,94991.00
2023-06-04T03:11:24.452Z,94992.00
2023-06-04T03:12:24.465Z,94991.00
2023-06-04T03:13:24.481Z,94991.00
2023-06-04T03:14:24.460Z,94990.00
2023-06-04T03:15:24.477Z,94990.00
2023-06-04T03:16:24.606Z,94994.00
2023-06-04T03:17:24.544Z,94997.00
2023-06-04T03:18:24.538Z,94998.00
2023-06-04T03:19:24.642Z,94999.00
2023-06-04T03:20:24.694Z,95002.00
2023-06-04T03:21:24.647Z,95004.00
2023-06-04T03:22:24.642Z,95006.00
2023-06-04T03:23:24.737Z,95007.00
2023-06-04T03:24:24.748Z,95011.00
2023-06-04T03:25:24.760Z,95012.00
2023-06-04T03:26:24.755Z,95014.00
2023-06-04T03:27:24.779Z,95015.00
2023-06-04T03:28:24.782Z,95018.00
2023-06-04T03:29:24.794Z,95022.00
2023-06-04T03:30:24.812Z,95020.00
2023-06-04T03:31:24.862Z,95020.00
2023-06-04T03:32:24.880Z,95021.00
2023-06-04T03:33:24.860Z,95023.00
2023-06-04T03:34:24.917Z,95023.00
2023-06-04T03:35:24.915Z,95025.00
2023-06-04T03:36:24.890Z,95025.00
2023-06-04T03:37:25.001Z,95028.00
2023-06-04T03:38:24.954Z,95027.00
2023-06-04T03:39:24.962Z,95028.00
2023-06-04T03:40:24.966Z,95025.00
2023-06-04T03:41:24.965Z,95028.00
2023-06-04T03:42:24.987Z,95027.00
2023-06-04T03:43:25.033Z,95027.00
2023-06-04T03:44:25.041Z,95027.00
2023-06-04T03:45:25.042Z,95029.00
2023-06-04T03:46:25.093Z,95029.00
2023-06-04T03:47:25.147Z,95029.00
2023-06-04T03:48:25.118Z,95030.00
2023-06-04T03:49:25.125Z,95029.00
2023-06-04T03:50:25.152Z,95028.00
2023-06-04T03:51:25.198Z,95026.00
2023-06-04T03:52:25.202Z,95027.00
2023-06-04T03:53:25.263Z,95026.00
2023-06-04T03:54:25.258Z,95027.00
2023-06-04T03:55:25.298Z,95025.00
2023-06-04T03:56:25.323Z,95028.00
2023-06-04T03:57:25.328Z,95029.00
2023-06-04T03:58:25.341Z,95030.00
2023-06-04T03:59:25.411Z,95031.00
2023-06-04T04:00:25.405Z,95028.00
2023-06-04T04:01:25.411Z,95028.00
2023-06-04T04:02:25.687Z,95032.00
2023-06-04T04:03:25.602Z,95032.00
2023-06-04T04:04:25.584Z,95032.00
2023-06-04T04:05:25.552Z,95034.00
2023-06-04T04:06:25.600Z,95035.00
2023-06-04T04:07:25.591Z,95036.00
2023-06-04T04:08:25.662Z,95036.00
2023-06-04T04:09:25.696Z,95037.00
2023-06-04T04:10:25.784Z,95036.00
2023-06-04T04:11:25.819Z,95036.00
2023-06-04T04:12:25.856Z,95036.00
2023-06-04T04:13:25.908Z,95038.00
2023-06-04T04:14:25.915Z,95038.00
2023-06-04T04:15:25.978Z,95037.00
2023-06-04T04:16:26.063Z,95037.00
2023-06-04T04:17:26.022Z,95035.00
2023-06-04T04:18:25.993Z,95037.00
2023-06-04T04:19:26.047Z,95039.00
2023-06-04T04:20:26.075Z,95039.00
2023-06-04T04:21:26.130Z,95034.00
2023-06-04T04:22:26.184Z,95035.00
2023-06-04T04:23:26.204Z,95035.00
2023-06-04T04:24:26.239Z,95038.00
2023-06-04T04:25:26.238Z,95037.00
2023-06-04T04:26:26.244Z,95037.00
2023-06-04T04:27:26.267Z,95034.00
2023-06-04T04:28:26.262Z,95034.00
2023-06-04T04:29:26.259Z,95039.00
2023-06-04T04:30:26.289Z,95037.00
2023-06-04T04:31:26.364Z,95038.00
2023-06-04T04:32:26.369Z,95041.00
2023-06-04T04:33:26.353Z,95040.00
2023-06-04T04:34:26.363Z,95042.00
2023-06-04T04:35:26.419Z,95040.00
2023-06-04T04:36:26.432Z,95040.00
2023-06-04T04:37:26.485Z,95042.00
2023-06-04T04:38:26.455Z,95042.00
2023-06-04T04:39:26.549Z,95041.00
2023-06-04T04:40:26.648Z,95038.00
2023-06-04T04:41:26.625Z,95040.00
2023-06-04T04:42:26.696Z,95042.00
2023-06-04T04:43:26.722Z,95042.00
2023-06-04T04:44:26.748Z,95042.00
2023-06-04T04:45:26.735Z,95042.00
2023-06-04T04:46:26.795Z,95043.00
2023-06-04T04:47:26.800Z,95041.00
2023-06-04T04:48:26.786Z,95041.00
2023-06-04T04:49:26.861Z,95040.00
2023-06-04T04:50:26.919Z,95039.00
2023-06-04T04:51:26.913Z,95041.00
2023-06-04T04:52:26.979Z,95040.00
2023-06-04T04:53:27.002Z,95041.00
2023-06-04T04:54:27.018Z,95040.00
2023-06-04T04:55:27.033Z,95042.00
2023-06-04T04:56:27.108Z,95045.00
2023-06-04T04:57:27.078Z,95045.00
2023-06-04T04:58:27.180Z,95044.00
2023-06-04T04:59:27.165Z,95045.00
2023-06-04T05:00:27.195Z,95044.00
2023-06-04T05:01:27.302Z,95045.00
2023-06-04T05:02:27.334Z,95046.00
2023-06-04T05:03:27.277Z,95047.00
2023-06-04T05:04:27.422Z,95048.00
2023-06-04T05:05:27.374Z,95049.00
2023-06-04T05:06:27.388Z,95052.00
2023-06-04T05:07:27.414Z,95051.00
2023-06-04T05:08:27.474Z,95052.00
2023-06-04T05:09:27.521Z,95055.00
2023-06-04T05:10:27.542Z,95052.00
2023-06-04T05:11:27.495Z,95052.00
2023-06-04T05:12:27.512Z,95053.00
2023-06-04T05:13:27.597Z,95054.00
2023-06-04T05:14:27.601Z,95053.00
2023-06-04T05:15:27.893Z,95053.00
2023-06-04T05:16:27.694Z,95053.00
2023-06-04T05:17:27.695Z,95052.00
2023-06-04T05:18:27.720Z,95056.00
2023-06-04T05:19:27.801Z,95054.00
2023-06-04T05:20:27.740Z,95053.00
2023-06-04T05:21:27.803Z,95050.00
2023-06-04T05:22:27.811Z,95048.00
2023-06-04T05:23:27.832Z,95046.00
2023-06-04T05:24:27.872Z,95045.00
2023-06-04T05:25:27.841Z,95047.00
2023-06-04T05:26:27.876Z,95047.00
2023-06-04T05:27:27.874Z,95046.00
2023-06-04T05:28:27.895Z,95047.00
2023-06-04T05:29:27.955Z,95049.00
2023-06-04T05:30:27.959Z,95047.00
2023-06-04T05:31:28.024Z,95046.00
2023-06-04T05:32:28.049Z,95048.00
2023-06-04T05:33:28.003Z,95050.00
2023-06-04T05:34:28.013Z,95050.00
2023-06-04T05:35:28.031Z,95053.00
2023-06-04T05:36:28.052Z,95051.00
2023-06-04T05:37:28.068Z,95050.00
2023-06-04T05:38:28.066Z,95055.00
2023-06-04T05:39:28.080Z,95056.00
2023-06-04T05:40:28.137Z,95053.00
2023-06-04T05:41:28.186Z,95057.00
2023-06-04T05:42:28.210Z,95055.00
2023-06-04T05:43:28.251Z,95056.00
2023-06-04T05:44:28.268Z,95057.00
2023-06-04T05:45:28.267Z,95054.00
2023-06-04T05:46:28.392Z,95052.00
2023-06-04T05:47:28.449Z,95056.00
2023-06-04T05:48:28.402Z,95055.00
2023-06-04T05:49:28.402Z,95055.00
2023-06-04T05:50:28.387Z,95054.00
2023-06-04T05:51:28.373Z,95055.00
2023-06-04T05:52:28.433Z,95056.00
2023-06-04T05:53:28.632Z,95058.00
2023-06-04T05:54:28.483Z,95058.00
2023-06-04T05:55:28.496Z,95061.00
2023-06-04T05:56:28.560Z,95063.00
2023-06-04T05:57:28.561Z,95065.00
2023-06-04T05:58:28.646Z,95065.00
2023-06-04T05:59:28.689Z,95060.00
2023-06-04T06:00:28.656Z,95065.00
2023-06-04T06:01:28.674Z,95067.00
2023-06-04T06:02:28.776Z,95064.00
2023-06-04T06:03:28.903Z,95062.00
2023-06-04T06:04:28.878Z,95061.00
2023-06-04T06:05:28.824Z,95060.00
2023-06-04T06:06:28.889Z,95058.00
2023-06-04T06:07:28.880Z,95056.00
2023-06-04T06:08:28.877Z,95057.00
2023-06-04T06:09:28.952Z,95056.00
2023-06-04T06:10:28.972Z,95056.00
2023-06-04T06:11:29.028Z,95057.00
2023-06-04T06:12:29.077Z,95058.00
2023-06-04T06:13:29.088Z,95057.00
2023-06-04T06:14:29.092Z,95058.00
2023-06-04T06:15:29.136Z,95055.00
2023-06-04T06:16:29.218Z,95054.00
2023-06-04T06:17:29.246Z,95055.00
2023-06-04T06:18:29.230Z,95053.00
2023-06-04T06:19:29.227Z,95051.00
2023-06-04T06:20:29.279Z,95052.00
2023-06-04T06:21:29.277Z,95051.00
2023-06-04T06:22:29.297Z,95050.00
2023-06-04T06:23:29.341Z,95045.00
2023-06-04T06:24:29.370Z,95049.00
2023-06-04T06:25:29.373Z,95050.00
2023-06-04T06:26:29.408Z,95051.00
2023-06-04T06:27:29.419Z,95048.00
2023-06-04T06:28:29.497Z,95053.00
2023-06-04T06:29:29.498Z,95051.00
2023-06-04T06:30:29.584Z,95051.00
2023-06-04T06:31:29.621Z,95048.00
2023-06-04T06:32:29.589Z,95052.00
2023-06-04T06:33:29.638Z,95048.00
2023-06-04T06:34:29.645Z,95045.00
2023-06-04T06:35:30.107Z,95047.00
2023-06-04T06:36:29.718Z,95046.00
2023-06-04T06:37:29.713Z,95041.00
2023-06-04T06:38:29.778Z,95044.00
2023-06-04T06:39:29.766Z,95044.00
2023-06-04T06:40:29.827Z,95047.00
2023-06-04T06:41:29.891Z,95043.00
2023-06-04T06:42:29.946Z,95043.00
2023-06-04T06:43:29.965Z,95045.00
2023-06-04T06:44:30.063Z,95044.00
2023-06-04T06:45:30.077Z,95042.00
2023-06-04T06:46:30.106Z,95040.00
2023-06-04T06:47:30.143Z,95041.00
2023-06-04T06:48:30.168Z,95037.00
2023-06-04T06:49:30.206Z,95038.00
2023-06-04T06:50:30.258Z,95036.00
2023-06-04T06:51:30.263Z,95039.00
2023-06-04T06:52:31.569Z,95038.00
2023-06-04T06:53:30.330Z,95037.00
2023-06-04T06:54:30.314Z,95036.00
2023-06-04T06:55:30.289Z,95037.00
2023-06-04T06:56:30.297Z,95036.00
2023-06-04T06:57:30.307Z,95034.00
2023-06-04T06:58:30.321Z,95034.00
2023-06-04T06:59:30.320Z,95030.00
2023-06-04T07:00:30.329Z,95031.00
2023-06-04T07:01:30.357Z,95035.00
2023-06-04T07:02:30.349Z,95032.00
2023-06-04T07:03:30.285Z,95034.00
2023-06-04T07:04:30.236Z,95034.00
2023-06-04T07:05:30.259Z,95031.00
2023-06-04T07:06:30.221Z,95033.00
2023-06-04T07:07:30.208Z,95034.00
2023-06-04T07:08:30.235Z,95031.00
2023-06-04T07:09:30.237Z,95031.00
2023-06-04T07:10:30.185Z,95033.00
2023-06-04T07:11:30.188Z,95031.00
2023-06-04T07:12:30.203Z,95028.00
2023-06-04T07:13:30.140Z,95026.00
2023-06-04T07:14:30.166Z,95020.00
2023-06-04T07:15:30.177Z,95021.00
2023-06-04T07:16:30.226Z,95016.00
2023-06-04T07:17:30.157Z,95017.00
2023-06-04T07:18:30.141Z,95014.00
2023-06-04T07:19:30.147Z,95014.00
2023-06-04T07:20:30.140Z,95014.00
2023-06-04T07:21:30.100Z,95013.00
2023-06-04T07:22:30.086Z,95010.00
2023-06-04T07:23:30.182Z,95007.00
2023-06-04T07:24:30.115Z,95010.00
2023-06-04T07:25:30.075Z,95005.00
2023-06-04T07:26:31.889Z,95006.00
2023-06-04T07:27:30.082Z,95004.00
2023-06-04T07:28:30.107Z,95003.00
2023-06-04T07:29:30.072Z,95006.00
2023-06-04T07:30:30.044Z,95006.00
2023-06-04T07:31:30.080Z,95007.00
2023-06-04T07:32:30.060Z,95007.00
2023-06-04T07:33:30.739Z,95005.00
2023-06-04T07:34:30.042Z,95004.00
2023-06-04T07:35:30.033Z,95002.00
2023-06-04T07:36:30.002Z,95007.00
2023-06-04T07:37:30.003Z,95004.00
2023-06-04T07:38:30.020Z,95003.00
2023-06-04T07:39:30.075Z,95004.00
2023-06-04T07:40:29.971Z,95001.00
2023-06-04T07:41:30.023Z,94995.00
2023-06-04T07:42:29.995Z,94998.00
2023-06-04T07:43:29.936Z,94998.00
2023-06-04T07:44:29.968Z,94998.00
2023-06-04T07:45:30.907Z,94997.00
2023-06-04T07:46:30.022Z,94996.00
2023-06-04T07:47:29.995Z,94990.00
2023-06-04T07:48:29.928Z,94991.00
2023-06-04T07:49:29.979Z,94990.00
2023-06-04T07:50:29.932Z,94987.00
2023-06-04T07:51:29.874Z,94984.00
2023-06-04T07:52:29.913Z,94982.00
2023-06-04T07:53:29.894Z,94981.00
2023-06-04T07:54:29.915Z,94981.00
2023-06-04T07:55:29.878Z,94978.00
2023-06-04T07:56:29.879Z,94980.00
2023-06-04T07:57:29.896Z,94976.00
2023-06-04T07:58:29.895Z,94978.00
2023-06-04T07:59:29.929Z,94974.00
2023-06-04T08:00:29.914Z,94976.00
2023-06-04T08:01:29.915Z,94975.00
2023-06-04T08:02:30.042Z,94973.00
2023-06-04T08:03:30.119Z,94973.00
2023-06-04T08:04:30.121Z,94971.00
2023-06-04T08:05:30.088Z,94973.00
2023-06-04T08:06:30.094Z,94972.00
2023-06-04T08:07:30.156Z,94971.00
2023-06-04T08:08:30.160Z,94972.00
2023-06-04T08:09:30.206Z,94969.00
2023-06-04T08:10:30.190Z,94970.00
2023-06-04T08:11:30.228Z,94970.00
2023-06-04T08:12:30.328Z,94968.00
2023-06-04T08:13:30.354Z,94969.00
2023-06-04T08:14:30.304Z,94967.00
2023-06-04T08:15:30.406Z,94968.00
2023-06-04T08:16:30.434Z,94968.00
2023-06-04T08:17:30.402Z,94971.00
2023-06-04T08:18:30.440Z,94973.00
2023-06-04T08:19:30.417Z,94972.00
2023-06-04T08:20:30.460Z,94970.00
2023-06-04T08:21:30.492Z,94968.00
2023-06-04T08:22:30.518Z,94967.00
2023-06-04T08:23:30.565Z,94966.00
2023-06-04T08:24:30.574Z,94963.00
2023-06-04T08:25:30.600Z,94964.00
2023-06-04T08:26:30.668Z,94961.00
2023-06-04T08:27:30.674Z,94959.00
2023-06-04T08:28:30.728Z,94959.00
2023-06-04T08:29:30.755Z,94959.00
2023-06-04T08:30:30.733Z,94958.00
2023-06-04T08:31:30.822Z,94959.00
2023-06-04T08:32:30.883Z,94957.00
2023-06-04T08:33:30.893Z,94955.00
2023-06-04T08:34:30.959Z,94951.00
2023-06-04T08:35:30.939Z,94952.00
2023-06-04T08:36:30.940Z,94950.00
2023-06-04T08:37:30.973Z,94948.00
2023-06-04T08:38:31.024Z,94949.00
2023-06-04T08:39:31.066Z,94952.00
2023-06-04T08:40:31.029Z,94953.00
2023-06-04T08:41:31.127Z,94953.00
2023-06-04T08:42:31.209Z,94952.00
2023-06-04T08:43:31.167Z,94949.00
2023-06-04T08:44:31.247Z,94950.00
2023-06-04T08:45:31.275Z,94950.00
2023-06-04T08:46:31.318Z,94947.00
2023-06-04T08:47:31.347Z,94950.00
2023-06-04T08:48:31.334Z,94946.00
2023-06-04T08:49:31.378Z,94947.00
2023-06-04T08:50:31.505Z,94947.00
2023-06-04T08:51:31.445Z,94945.00
2023-06-04T08:52:31.464Z,94942.00
2023-06-04T08:53:31.573Z,94945.00
2023-06-04T08:54:31.563Z,94942.00
2023-06-04T08:55:31.611Z,94940.00
2023-06-04T08:56:31.564Z,94943.00
2023-06-04T08:57:31.645Z,94938.00
2023-06-04T08:58:31.643Z,94942.00
2023-06-04T08:59:31.658Z,94941.00
2023-06-04T09:00:31.649Z,94943.00
2023-06-04T09:01:31.768Z,94942.00
2023-06-04T09:02:31.819Z,94943.00
2023-06-04T09:03:31.787Z,94941.00
2023-06-04T09:04:31.779Z,94939.00
2023-06-04T09:05:31.821Z,94933.00
2023-06-04T09:06:31.917Z,94935.00
2023-06-04T09:07:31.911Z,94934.00
2023-06-04T09:08:31.911Z,94931.00
2023-06-04T09:09:32.010Z,94929.00
2023-06-04T09:10:32.077Z,94931.00
2023-06-04T09:11:32.093Z,94930.00
2023-06-04T09:12:33.316Z,94927.00
2023-06-04T09:13:32.116Z,94928.00
2023-06-04T09:14:32.122Z,94925.00
2023-06-04T09:15:32.169Z,94922.00
2023-06-04T09:16:32.232Z,94920.00
2023-06-04T09:17:32.235Z,94917.00
2023-06-04T09:18:32.248Z,94915.00
2023-06-04T09:19:32.261Z,94923.00
2023-06-04T09:20:32.321Z,94917.00
2023-06-04T09:21:32.309Z,94917.00
2023-06-04T09:22:32.316Z,94919.00
2023-06-04T09:23:32.414Z,94916.00
2023-06-04T09:24:32.425Z,94920.00
2023-06-04T09:25:32.465Z,94919.00
2023-06-04T09:26:32.508Z,94920.00
2023-06-04T09:27:32.468Z,94926.00
2023-06-04T09:28:32.495Z,94921.00
2023-06-04T09:29:32.519Z,94920.00
2023-06-04T09:30:32.588Z,94922.00
2023-06-04T09:31:32.709Z,94918.00
2023-06-04T09:32:32.690Z,94919.00
2023-06-04T09:33:32.661Z,94917.00
2023-06-04T09:34:32.718Z,94916.00
2023-06-04T09:35:32.725Z,94913.00
2023-06-04T09:36:32.710Z,94913.00
2023-06-04T09:37:32.767Z,94915.00
2023-06-04T09:38:32.783Z,94912.00
2023-06-04T09:39:32.836Z,94909.00
2023-06-04T09:40:32.845Z,94905.00
2023-06-04T09:41:32.856Z,94909.00
2023-06-04T09:42:32.860Z,94905.00
2023-06-04T09:43:32.922Z,94903.00
2023-06-04T09:44:32.933Z,94904.00
2023-06-04T09:45:33.223Z,94905.00
2023-06-04T09:46:33.149Z,94903.00
2023-06-04T09:47:33.032Z,94900.00
2023-06-04T09:48:33.006Z,94902.00
2023-06-04T09:49:33.071Z,94900.00
2023-06-04T09:50:33.123Z,94901.00
2023-06-04T09:51:33.160Z,94898.00
2023-06-04T09:52:33.169Z,94900.00
2023-06-04T09:54:31.138Z,94899.00
2023-06-04T09:55:31.109Z,94898.00
2023-06-04T09:56:31.108Z,94902.00
2023-06-04T09:57:31.098Z,94899.00
2023-06-04T09:58:31.078Z,94898.00
2023-06-04T09:59:31.107Z,94896.00
2023-06-04T10:00:31.077Z,94896.00
2023-06-04T10:01:31.235Z,94896.00
2023-06-04T10:02:31.095Z,94890.00
2023-06-04T10:03:31.164Z,94892.00
2023-06-04T10:04:31.038Z,94889.00
2023-06-04T10:05:31.065Z,94887.00
2023-06-04T10:06:31.025Z,94889.00
2023-06-04T10:07:31.021Z,94887.00
2023-06-04T10:08:31.033Z,94887.00
2023-06-04T10:09:33.314Z,94886.00
2023-06-04T10:10:31.119Z,94886.00
2023-06-04T10:11:31.106Z,94886.00
2023-06-04T10:12:31.120Z,94886.00
2023-06-04T10:13:31.175Z,94888.00
2023-06-04T10:14:31.204Z,94888.00
2023-06-04T10:15:31.245Z,94891.00
2023-06-04T10:16:34.688Z,94890.00
2023-06-04T10:17:31.303Z,94891.00
2023-06-04T10:18:31.269Z,94889.00
2023-06-04T10:19:31.286Z,94892.00
2023-06-04T10:20:31.256Z,94890.00
2023-06-04T10:21:31.258Z,94889.00
2023-06-04T10:22:31.261Z,94890.00
2023-06-04T10:23:31.294Z,94886.00
2023-06-04T10:24:31.215Z,94887.00
2023-06-04T10:25:31.226Z,94883.00
2023-06-04T10:26:31.206Z,94886.00
2023-06-04T10:27:31.220Z,94884.00
2023-06-04T10:28:31.178Z,94883.00
2023-06-04T10:29:31.200Z,94883.00
2023-06-04T10:30:31.184Z,94883.00
2023-06-04T10:31:31.267Z,94886.00
2023-06-04T10:32:31.201Z,94884.00
2023-06-04T10:33:31.124Z,94887.00
2023-06-04T10:34:31.178Z,94883.00
2023-06-04T10:35:31.151Z,94883.00
2023-06-04T10:36:31.145Z,94878.00
2023-06-04T10:37:31.156Z,94880.00
2023-06-04T10:38:31.102Z,94878.00
2023-06-04T10:39:31.170Z,94878.00
2023-06-04T10:40:31.120Z,94881.00
2023-06-04T10:41:31.117Z,94882.00
2023-06-04T10:42:31.104Z,94882.00
2023-06-04T10:43:31.068Z,94881.00
2023-06-04T10:44:31.087Z,94881.00
2023-06-04T10:45:31.083Z,94881.00
2023-06-04T10:46:31.070Z,94877.00
2023-06-04T10:47:31.108Z,94878.00
2023-06-04T10:48:31.077Z,94878.00
2023-06-04T10:49:31.133Z,94879.00
2023-06-04T10:50:31.005Z,94876.00
2023-06-04T10:51:31.017Z,94876.00
2023-06-04T10:52:31.024Z,94875.00
2023-06-04T10:53:30.989Z,94872.00
2023-06-04T10:54:31.013Z,94869.00
2023-06-04T10:55:30.985Z,94873.00
2023-06-04T10:56:30.972Z,94873.00
2023-06-04T10:57:30.980Z,94874.00
2023-06-04T10:58:30.985Z,94870.00
2023-06-04T10:59:30.978Z,94872.00
2023-06-04T11:00:30.959Z,94875.00
2023-06-04T11:01:31.002Z,94871.00
2023-06-04T11:02:30.989Z,94870.00
2023-06-04T11:03:31.062Z,94869.00
2023-06-04T11:04:31.027Z,94868.00
2023-06-04T11:05:31.143Z,94865.00
2023-06-04T11:06:31.152Z,94865.00
2023-06-04T11:07:31.200Z,94866.00
2023-06-04T11:08:31.230Z,94865.00
2023-06-04T11:09:32.241Z,94863.00
2023-06-04T11:10:31.338Z,94866.00
2023-06-04T11:11:31.289Z,94864.00
2023-06-04T11:12:31.289Z,94863.00
2023-06-04T11:13:31.355Z,94862.00
2023-06-04T11:14:31.365Z,94863.00
2023-06-04T11:15:31.404Z,94859.00
2023-06-04T11:16:31.434Z,94858.00
2023-06-04T11:17:31.542Z,94860.00
2023-06-04T11:18:31.525Z,94854.00
2023-06-04T11:19:31.484Z,94856.00
2023-06-04T11:20:31.536Z,94857.00
2023-06-04T11:21:31.599Z,94854.00
2023-06-04T11:22:31.618Z,94855.00
2023-06-04T11:23:31.681Z,94855.00
2023-06-04T11:24:31.661Z,94855.00
2023-06-04T11:25:31.724Z,94858.00
2023-06-04T11:26:31.774Z,94858.00
2023-06-04T11:27:36.857Z,94856.00
2023-06-04T11:28:32.818Z,94854.00
2023-06-04T11:29:31.803Z,94856.00
2023-06-04T11:30:31.782Z,94851.00
2023-06-04T11:31:31.842Z,94853.00
2023-06-04T11:32:31.858Z,94853.00
2023-06-04T11:33:31.797Z,94856.00
2023-06-04T11:34:31.817Z,94857.00
2023-06-04T11:35:31.796Z,94860.00
2023-06-04T11:36:31.783Z,94858.00
2023-06-04T11:37:31.825Z,94859.00
2023-06-04T11:38:31.717Z,94860.00
2023-06-04T11:39:31.721Z,94860.00
2023-06-04T11:40:31.733Z,94860.00
2023-06-04T11:41:31.750Z,94859.00
2023-06-04T11:42:31.698Z,94858.00
2023-06-04T11:43:31.693Z,94858.00
2023-06-04T11:44:31.776Z,94854.00
2023-06-04T11:45:31.836Z,94858.00